createdAt,value
2023-05-14T00:00:30.676Z,35.92
2023-05-14T00:02:57.852Z,49.25
2023-05-14T00:05:25.198Z,59.63
2023-05-14T00:07:52.226Z,42.80
2023-05-14T00:10:20.891Z,34.28
2023-05-14T00:12:48.157Z,37.72
2023-05-14T00:15:15.386Z,40.08
2023-05-14T00:17:42.841Z,34.40
2023-05-14T00:20:12.205Z,36.63
2023-05-14T00:22:39.937Z,34.63
2023-05-14T00:25:08.257Z,40.40
2023-05-14T00:27:37.882Z,34.13
2023-05-14T00:30:07.187Z,38.42
2023-05-14T00:32:34.418Z,67.38
2023-05-14T00:35:03.253Z,37.92
2023-05-14T00:37:30.718Z,38.83
2023-05-14T00:39:58.924Z,46.03
2023-05-14T00:42:27.231Z,47.00
2023-05-14T00:44:54.314Z,46.45
2023-05-14T00:47:21.425Z,48.75
2023-05-14T00:49:48.605Z,39.53
2023-05-14T00:52:16.971Z,36.40
2023-05-14T00:54:46.080Z,45.85
2023-05-14T00:57:13.303Z,43.92
2023-05-14T00:59:41.978Z,32.35
2023-05-14T01:02:09.111Z,40.08
2023-05-14T01:04:36.379Z,38.90
2023-05-14T01:07:45.016Z,34.65
2023-05-14T01:10:36.071Z,38.83
2023-05-14T01:13:18.652Z,40.85
2023-05-14T01:15:48.010Z,47.17
2023-05-14T01:18:19.250Z,46.58
2023-05-14T01:20:46.499Z,43.25
2023-05-14T01:23:13.542Z,50.15
2023-05-14T01:25:41.610Z,34.75
2023-05-14T01:28:20.621Z,41.53
2023-05-14T01:31:10.614Z,40.10
2023-05-14T01:33:41.856Z,47.22
2023-05-14T01:36:10.051Z,28.98
2023-05-14T01:38:38.618Z,34.65
2023-05-14T01:41:06.383Z,33.08
2023-05-14T01:43:34.045Z,34.47
2023-05-14T01:46:01.551Z,34.03
2023-05-14T01:48:30.109Z,28.83
2023-05-14T01:50:57.258Z,32.03
2023-05-14T01:53:24.629Z,33.08
2023-05-14T01:55:51.888Z,37.75
2023-05-14T01:58:20.063Z,33.72
2023-05-14T02:00:47.386Z,39.88
2023-05-14T02:03:16.010Z,29.17
2023-05-14T02:05:42.977Z,33.25
2023-05-14T02:08:10.763Z,23.70
2023-05-14T02:10:37.937Z,33.70
2023-05-14T02:13:05.140Z,38.72
2023-05-14T02:15:32.196Z,29.98
2023-05-14T02:17:59.363Z,34.05
2023-05-14T02:20:26.595Z,39.65
2023-05-14T02:22:53.570Z,37.42
2023-05-14T02:25:21.216Z,34.88
2023-05-14T02:27:48.592Z,45.47
2023-05-14T02:30:15.774Z,39.47
2023-05-14T02:32:44.000Z,35.00
2023-05-14T02:35:11.160Z,35.38
2023-05-14T02:37:38.511Z,35.78
2023-05-14T02:40:06.658Z,30.17
2023-05-14T02:42:34.041Z,46.08
2023-05-14T02:45:01.222Z,31.83
2023-05-14T02:47:28.399Z,41.33
2023-05-14T02:49:55.516Z,37.85
2023-05-14T02:52:22.635Z,39.20
2023-05-14T02:54:49.785Z,39.03
2023-05-14T02:57:16.807Z,32.08
2023-05-14T02:59:43.932Z,34.95
2023-05-14T03:02:11.235Z,40.78
2023-05-14T03:04:38.813Z,29.85
2023-05-14T03:07:06.150Z,30.48
2023-05-14T03:09:33.673Z,36.65
2023-05-14T03:12:01.365Z,42.95
2023-05-14T03:14:28.569Z,32.63
2023-05-14T03:16:55.689Z,24.83
2023-05-14T03:19:22.853Z,35.70
2023-05-14T03:21:50.321Z,32.33
2023-05-14T03:24:17.470Z,29.23
2023-05-14T03:26:44.611Z,31.10
2023-05-14T03:29:11.736Z,26.85
2023-05-14T03:31:38.747Z,32.85
2023-05-14T03:34:06.139Z,32.47
2023-05-14T03:36:34.305Z,29.85
2023-05-14T03:39:01.457Z,42.38
2023-05-14T03:41:28.479Z,32.03
2023-05-14T03:43:55.831Z,37.45
2023-05-14T03:46:22.908Z,34.60
2023-05-14T03:48:50.241Z,31.90
2023-05-14T03:51:17.448Z,44.45
2023-05-14T03:53:44.719Z,36.17
2023-05-14T03:56:13.303Z,32.40
2023-05-14T03:58:40.844Z,32.20
2023-05-14T04:01:07.839Z,40.20
2023-05-14T04:03:35.169Z,33.83
2023-05-14T04:06:02.388Z,39.60
2023-05-14T04:08:29.574Z,26.70
2023-05-14T04:10:56.954Z,26.98
2023-05-14T04:13:24.134Z,32.95
2023-05-14T04:15:51.417Z,33.67
2023-05-14T04:18:18.845Z,32.15
2023-05-14T04:20:45.927Z,30.60
2023-05-14T04:23:13.140Z,28.55
2023-05-14T04:25:40.178Z,25.13
2023-05-14T04:28:07.363Z,28.77
2023-05-14T04:30:34.404Z,22.67
2023-05-14T04:33:01.551Z,32.42
2023-05-14T04:35:28.814Z,31.35
2023-05-14T04:37:56.106Z,26.75
2023-05-14T04:40:23.389Z,32.20
2023-05-14T04:42:51.807Z,54.58
2023-05-14T04:45:19.361Z,38.15
2023-05-14T04:47:46.911Z,34.33
2023-05-14T04:50:14.475Z,38.58
2023-05-14T04:52:41.821Z,34.22
2023-05-14T04:55:09.430Z,39.80
2023-05-14T04:57:36.542Z,39.10
2023-05-14T05:00:06.006Z,33.70
2023-05-14T05:02:34.967Z,34.88
2023-05-14T05:05:02.555Z,35.42
2023-05-14T05:07:29.689Z,32.28
2023-05-14T05:09:56.735Z,27.65
2023-05-14T05:12:23.935Z,26.80
2023-05-14T05:14:51.132Z,28.88
2023-05-14T05:17:18.101Z,28.17
2023-05-14T05:19:45.208Z,28.38
2023-05-14T05:22:12.343Z,25.40
2023-05-14T05:24:39.354Z,26.98
2023-05-14T05:27:06.487Z,28.20
2023-05-14T05:29:35.642Z,26.52
2023-05-14T05:32:02.679Z,28.63
2023-05-14T05:34:29.919Z,23.88
2023-05-14T05:36:57.093Z,17.77
2023-05-14T05:39:24.135Z,25.35
2023-05-14T05:41:51.216Z,28.42
2023-05-14T05:44:18.253Z,32.85
2023-05-14T05:46:45.340Z,25.20
2023-05-14T05:49:12.380Z,37.25
2023-05-14T05:51:39.502Z,28.48
2023-05-14T05:54:06.481Z,33.90
2023-05-14T05:56:33.570Z,25.20
2023-05-14T05:59:00.656Z,26.15
2023-05-14T06:01:29.657Z,27.88
2023-05-14T06:03:57.140Z,34.88
2023-05-14T06:06:24.341Z,30.60
2023-05-14T06:08:51.388Z,42.97
2023-05-14T06:11:18.457Z,53.47
2023-05-14T06:13:45.508Z,75.35
2023-05-14T06:16:12.588Z,70.97
2023-05-14T06:18:39.663Z,86.15
2023-05-14T06:21:06.785Z,90.30
2023-05-14T06:23:34.002Z,87.35
2023-05-14T06:26:01.130Z,87.93
2023-05-14T06:28:28.393Z,62.30
2023-05-14T06:30:56.062Z,52.83
2023-05-14T06:33:29.838Z,47.70
2023-05-14T06:36:01.127Z,39.78
2023-05-14T06:38:28.255Z,35.60
2023-05-14T06:40:55.399Z,41.30
2023-05-14T06:43:22.505Z,32.00
2023-05-14T06:45:52.842Z,46.28
2023-05-14T06:48:20.454Z,39.67
2023-05-14T06:50:48.613Z,33.35
2023-05-14T06:53:16.213Z,45.03
2023-05-14T06:55:43.378Z,46.72
2023-05-14T06:58:10.607Z,44.47
2023-05-14T07:00:37.746Z,43.88
2023-05-14T07:03:05.025Z,41.40
2023-05-14T07:05:32.463Z,47.30
2023-05-14T07:07:59.869Z,38.42
2023-05-14T07:10:26.965Z,35.40
2023-05-14T07:12:54.002Z,58.72
2023-05-14T07:15:21.413Z,56.20
2023-05-14T07:17:48.576Z,46.78
2023-05-14T07:20:15.666Z,51.22
2023-05-14T07:22:42.744Z,55.60
2023-05-14T07:25:10.193Z,52.03
2023-05-14T07:27:37.205Z,45.72
2023-05-14T07:30:04.642Z,50.85
2023-05-14T07:32:31.676Z,47.67
2023-05-14T07:34:58.921Z,47.25
2023-05-14T07:37:26.308Z,45.15
2023-05-14T07:39:53.896Z,34.92
2023-05-14T07:42:34.415Z,45.38
2023-05-14T07:45:02.865Z,42.17
2023-05-14T07:47:30.126Z,52.00
2023-05-14T07:49:57.848Z,66.00
2023-05-14T07:52:25.154Z,50.45
2023-05-14T07:54:52.561Z,66.07
2023-05-14T07:57:20.130Z,45.15
2023-05-14T07:59:48.754Z,63.60
2023-05-14T08:02:18.718Z,57.28
2023-05-14T08:04:45.862Z,60.58
2023-05-14T08:07:13.149Z,63.40
2023-05-14T08:09:40.357Z,62.17
2023-05-14T08:12:07.850Z,55.72
2023-05-14T08:14:34.958Z,59.55
2023-05-14T08:17:02.293Z,55.65
2023-05-14T08:19:29.612Z,62.47
2023-05-14T08:21:56.709Z,56.63
2023-05-14T08:24:23.801Z,46.53
2023-05-14T08:26:50.935Z,39.47
2023-05-14T08:29:18.043Z,40.70
2023-05-14T08:31:45.015Z,42.45
2023-05-14T08:34:12.126Z,35.03
2023-05-14T08:36:39.549Z,40.30
2023-05-14T08:39:07.962Z,54.97
2023-05-14T08:41:35.296Z,54.05
2023-05-14T08:44:15.522Z,49.80
2023-05-14T08:46:42.562Z,44.33
2023-05-14T08:49:40.997Z,37.10
2023-05-14T08:52:09.686Z,37.65
2023-05-14T08:54:36.974Z,37.78
2023-05-14T08:57:05.623Z,36.58
2023-05-14T08:59:33.012Z,41.42
2023-05-14T09:02:03.159Z,42.05
2023-05-14T09:04:31.589Z,38.58
2023-05-14T09:07:01.678Z,45.00
2023-05-14T09:09:29.221Z,61.70
2023-05-14T09:11:56.419Z,39.33
2023-05-14T09:14:24.207Z,36.95
2023-05-14T09:16:52.082Z,34.75
2023-05-14T09:19:19.772Z,36.20
2023-05-14T09:21:48.023Z,48.47
2023-05-14T09:24:23.150Z,54.40
2023-05-14T09:26:52.765Z,66.22
2023-05-14T09:29:20.098Z,48.40
2023-05-14T09:31:51.927Z,51.70
2023-05-14T09:34:32.721Z,37.90
2023-05-14T09:37:05.304Z,34.50
2023-05-14T09:39:33.677Z,33.80
2023-05-14T09:42:01.342Z,41.75
2023-05-14T09:44:28.960Z,43.80
2023-05-14T09:46:56.694Z,51.53
2023-05-14T09:49:23.815Z,54.78
2023-05-14T09:51:51.512Z,58.70
2023-05-14T09:54:18.852Z,46.13
2023-05-14T09:56:45.990Z,43.20
2023-05-14T09:59:13.402Z,42.35
2023-05-14T10:01:44.331Z,66.00
2023-05-14T10:04:12.782Z,66.53
2023-05-14T10:06:42.250Z,64.45
2023-05-14T10:09:19.551Z,46.80
2023-05-14T10:11:52.881Z,46.03
2023-05-14T10:14:43.338Z,40.83
2023-05-14T10:17:18.427Z,33.58
2023-05-14T10:19:54.188Z,38.95
2023-05-14T10:22:24.675Z,56.55
2023-05-14T10:24:52.812Z,36.45
2023-05-14T10:27:23.689Z,44.22
2023-05-14T10:29:55.777Z,39.28
2023-05-14T10:32:26.345Z,34.22
2023-05-14T10:34:54.089Z,63.42
2023-05-14T10:37:24.362Z,56.72
2023-05-14T10:39:56.592Z,34.65
2023-05-14T10:42:40.919Z,40.70
2023-05-14T10:45:10.476Z,42.10
2023-05-14T10:47:43.058Z,64.13
2023-05-14T10:50:15.173Z,46.95
2023-05-14T10:52:43.792Z,50.53
2023-05-14T10:55:14.527Z,56.63
2023-05-14T10:57:45.280Z,62.28
2023-05-14T11:00:14.670Z,58.22
2023-05-14T11:02:44.030Z,50.85
2023-05-14T11:05:17.430Z,47.00
2023-05-14T11:07:47.561Z,49.78
2023-05-14T11:10:14.822Z,68.38
2023-05-14T11:12:50.321Z,69.63
2023-05-14T11:15:26.379Z,124.97
2023-05-14T11:17:54.431Z,93.45
2023-05-14T11:20:22.079Z,53.10
2023-05-14T11:22:51.910Z,67.00
2023-05-14T11:25:19.186Z,47.30
2023-05-14T11:27:48.161Z,56.85
2023-05-14T11:30:20.002Z,49.28
2023-05-14T11:32:49.337Z,39.97
2023-05-14T11:35:17.865Z,54.72
2023-05-14T11:37:52.441Z,51.30
2023-05-14T11:40:20.077Z,51.83
2023-05-14T11:42:47.352Z,57.72
2023-05-14T11:45:24.481Z,45.22
2023-05-14T11:47:53.075Z,53.25
2023-05-14T11:50:22.121Z,52.25
2023-05-14T11:52:50.929Z,40.17
2023-05-14T11:55:18.310Z,40.63
2023-05-14T11:57:45.576Z,45.85
2023-05-14T12:00:21.787Z,42.92
2023-05-14T12:02:50.232Z,44.38
2023-05-14T12:05:17.660Z,41.03
2023-05-14T12:07:45.864Z,41.20
2023-05-14T12:10:13.891Z,29.40
2023-05-14T12:12:41.497Z,36.78
2023-05-14T12:15:13.614Z,43.65
2023-05-14T12:17:40.931Z,40.80
2023-05-14T12:20:12.589Z,37.47
2023-05-14T12:22:42.528Z,34.55
2023-05-14T12:25:14.180Z,39.45
2023-05-14T12:27:44.921Z,44.08
2023-05-14T12:30:21.190Z,44.65
2023-05-14T12:32:51.901Z,50.25
2023-05-14T12:35:19.502Z,33.08
2023-05-14T12:37:46.781Z,36.97
2023-05-14T12:40:14.099Z,42.88
2023-05-14T12:42:41.209Z,43.88
2023-05-14T12:45:08.862Z,37.88
2023-05-14T12:47:37.293Z,45.05
2023-05-14T12:50:05.060Z,35.47
2023-05-14T12:52:38.533Z,41.75
2023-05-14T12:55:08.354Z,47.70
2023-05-14T12:57:35.913Z,53.47
2023-05-14T13:00:07.159Z,59.22
2023-05-14T13:02:42.184Z,72.35
2023-05-14T13:05:12.924Z,60.55
2023-05-14T13:07:40.307Z,52.92
2023-05-14T13:10:08.327Z,60.38
2023-05-14T13:12:35.799Z,74.80
2023-05-14T13:15:02.876Z,55.05
2023-05-14T13:17:30.638Z,63.08
2023-05-14T13:19:57.875Z,55.08
2023-05-14T13:22:25.034Z,50.40
2023-05-14T13:24:52.079Z,54.47
2023-05-14T13:27:19.281Z,59.85
2023-05-14T13:29:46.516Z,60.15
2023-05-14T13:32:13.585Z,64.13
2023-05-14T13:34:40.750Z,67.22
2023-05-14T13:37:07.839Z,103.53
2023-05-14T13:39:34.889Z,102.63
2023-05-14T13:42:02.031Z,93.70
2023-05-14T13:44:29.565Z,63.28
2023-05-14T13:46:56.708Z,71.93
2023-05-14T13:49:23.925Z,52.42
2023-05-14T13:51:51.147Z,57.35
2023-05-14T13:54:18.403Z,79.50
2023-05-14T13:56:45.619Z,84.20
2023-05-14T13:59:15.724Z,77.00
2023-05-14T14:01:43.528Z,57.33
2023-05-14T14:04:11.089Z,58.58
2023-05-14T14:06:38.219Z,57.20
2023-05-14T14:09:05.280Z,58.85
2023-05-14T14:11:32.707Z,47.17
2023-05-14T14:13:59.842Z,59.88
2023-05-14T14:16:27.049Z,58.17
2023-05-14T14:18:54.254Z,46.22
2023-05-14T14:21:21.342Z,53.97
2023-05-14T14:23:49.127Z,44.83
2023-05-14T14:26:16.329Z,45.28
2023-05-14T14:28:43.676Z,35.63
2023-05-14T14:31:11.620Z,59.45
2023-05-14T14:33:38.894Z,38.58
2023-05-14T14:36:06.913Z,38.88
2023-05-14T14:38:33.983Z,37.58
2023-05-14T14:41:03.379Z,40.67
2023-05-14T14:43:30.516Z,45.22
2023-05-14T14:45:57.949Z,51.92
2023-05-14T14:48:39.908Z,33.63
2023-05-14T14:51:08.310Z,34.00
2023-05-14T14:53:37.278Z,56.35
2023-05-14T14:56:04.994Z,54.10
2023-05-14T14:58:32.326Z,48.58
2023-05-14T15:01:01.317Z,47.58
2023-05-14T15:03:29.105Z,55.25
2023-05-14T15:05:56.334Z,51.72
2023-05-14T15:08:27.964Z,53.83
2023-05-14T15:10:56.407Z,68.28
2023-05-14T15:13:24.299Z,50.65
2023-05-14T15:15:52.838Z,69.22
2023-05-14T15:18:21.429Z,55.90
2023-05-14T15:20:49.109Z,60.05
2023-05-14T15:23:16.434Z,73.88
2023-05-14T15:25:43.679Z,100.63
2023-05-14T15:28:11.147Z,106.82
2023-05-14T15:30:38.496Z,91.20
2023-05-14T15:33:08.116Z,89.85
2023-05-14T15:35:35.223Z,70.63
2023-05-14T15:38:04.078Z,88.22
2023-05-14T15:40:31.298Z,80.63
2023-05-14T15:42:58.292Z,87.20
2023-05-14T15:45:25.423Z,78.00
2023-05-14T15:47:52.552Z,68.45
2023-05-14T15:50:20.643Z,74.82
2023-05-14T15:52:48.488Z,60.45
2023-05-14T15:55:15.922Z,69.78
2023-05-14T15:57:43.150Z,87.32
2023-05-14T16:00:11.204Z,62.88
2023-05-14T16:02:40.200Z,60.55
2023-05-14T16:05:08.732Z,61.08
2023-05-14T16:07:36.496Z,84.32
2023-05-14T16:10:04.181Z,77.10
2023-05-14T16:12:31.254Z,77.80
2023-05-14T16:14:58.606Z,56.58
2023-05-14T16:17:27.824Z,51.03
2023-05-14T16:19:56.489Z,53.75
2023-05-14T16:22:23.777Z,51.35
2023-05-14T16:24:51.151Z,50.00
2023-05-14T16:27:21.001Z,48.13
2023-05-14T16:29:48.093Z,38.50
2023-05-14T16:32:15.338Z,41.00
2023-05-14T16:34:47.527Z,37.53
2023-05-14T16:37:15.219Z,46.80
2023-05-14T16:39:42.813Z,47.83
2023-05-14T16:42:09.961Z,53.53
2023-05-14T16:44:37.009Z,48.67
2023-05-14T16:47:04.756Z,47.08
2023-05-14T16:49:31.901Z,33.15
2023-05-14T16:51:58.914Z,37.70
2023-05-14T16:54:26.213Z,34.83
2023-05-14T16:56:53.244Z,54.30
2023-05-14T16:59:20.488Z,69.88
2023-05-14T17:01:48.299Z,63.80
2023-05-14T17:04:16.155Z,62.38
2023-05-14T17:06:43.362Z,47.97
2023-05-14T17:09:10.735Z,53.08
2023-05-14T17:11:37.770Z,46.22
2023-05-14T17:14:05.080Z,39.75
2023-05-14T17:16:32.135Z,39.40
2023-05-14T17:18:59.461Z,52.65
2023-05-14T17:21:26.631Z,40.38
2023-05-14T17:23:53.920Z,44.22
2023-05-14T17:26:21.377Z,38.75
2023-05-14T17:28:51.255Z,46.97
2023-05-14T17:31:18.541Z,44.67
2023-05-14T17:33:45.812Z,49.33
2023-05-14T17:36:13.116Z,40.92
2023-05-14T17:38:41.598Z,32.38
2023-05-14T17:41:09.857Z,35.10
2023-05-14T17:43:36.852Z,35.83
2023-05-14T17:46:05.348Z,36.15
2023-05-14T17:48:32.466Z,36.28
2023-05-14T17:51:18.622Z,36.72
2023-05-14T17:53:46.447Z,42.30
2023-05-14T17:56:13.657Z,40.38
2023-05-14T17:58:41.509Z,54.72
2023-05-14T18:01:08.829Z,46.40
2023-05-14T18:03:36.408Z,48.80
2023-05-14T18:06:04.133Z,34.92
2023-05-14T18:08:31.436Z,42.60
2023-05-14T18:11:00.957Z,39.28
2023-05-14T18:13:28.407Z,37.33
2023-05-14T18:15:56.708Z,42.40
2023-05-14T18:18:31.665Z,41.17
2023-05-14T18:20:58.833Z,43.15
2023-05-14T18:23:25.909Z,44.95
2023-05-14T18:25:53.111Z,47.83
2023-05-14T18:28:21.577Z,40.90
2023-05-14T18:30:49.950Z,43.38
2023-05-14T18:33:17.163Z,47.10
2023-05-14T18:35:44.467Z,41.25
2023-05-14T18:38:13.884Z,41.78
2023-05-14T18:40:41.025Z,42.35
2023-05-14T18:43:08.007Z,36.40
2023-05-14T18:45:35.189Z,50.40
2023-05-14T18:48:02.292Z,42.72
2023-05-14T18:50:29.405Z,40.03
2023-05-14T18:52:57.942Z,50.58
2023-05-14T18:55:25.394Z,50.80
2023-05-14T18:57:52.979Z,59.33
2023-05-14T19:00:20.381Z,43.65
2023-05-14T19:02:47.509Z,51.28
2023-05-14T19:05:14.676Z,50.22
2023-05-14T19:07:43.081Z,54.33
2023-05-14T19:10:11.224Z,40.25
2023-05-14T19:12:38.350Z,44.85
2023-05-14T19:15:06.194Z,51.97
2023-05-14T19:17:33.425Z,55.78
2023-05-14T19:20:00.628Z,58.05
2023-05-14T19:22:27.775Z,55.53
2023-05-14T19:24:55.123Z,43.08
2023-05-14T19:27:24.303Z,48.30
2023-05-14T19:29:51.572Z,49.00
2023-05-14T19:32:18.821Z,40.92
2023-05-14T19:34:48.034Z,136.18
2023-05-14T19:37:16.137Z,155.05
2023-05-14T19:39:43.350Z,106.43
2023-05-14T19:42:10.596Z,99.93
2023-05-14T19:44:37.869Z,105.97
2023-05-14T19:47:05.573Z,87.22
2023-05-14T19:49:32.797Z,83.45
2023-05-14T19:51:59.909Z,95.00
2023-05-14T19:54:27.004Z,151.40
2023-05-14T19:56:54.840Z,97.90
2023-05-14T19:59:22.011Z,88.90
2023-05-14T20:01:49.025Z,88.55
2023-05-14T20:04:16.277Z,79.63
2023-05-14T20:06:45.658Z,77.18
2023-05-14T20:09:13.854Z,68.25
2023-05-14T20:11:41.043Z,58.95
2023-05-14T20:14:08.266Z,73.50
2023-05-14T20:16:36.082Z,76.13
2023-05-14T20:19:04.044Z,114.57
2023-05-14T20:21:32.068Z,114.97
2023-05-14T20:23:59.375Z,111.38
2023-05-14T20:26:26.706Z,88.82
2023-05-14T20:28:55.307Z,66.93
2023-05-14T20:31:22.463Z,124.65
2023-05-14T20:33:49.722Z,73.50
2023-05-14T20:36:17.135Z,88.85
2023-05-14T20:38:44.139Z,91.18
2023-05-14T20:41:12.337Z,93.35
2023-05-14T20:43:39.618Z,65.28
2023-05-14T20:46:07.494Z,67.90
2023-05-14T20:48:34.624Z,49.15
2023-05-14T20:51:02.039Z,53.97
2023-05-14T20:53:29.235Z,61.13
2023-05-14T20:55:56.455Z,53.17
2023-05-14T20:58:23.522Z,51.80
2023-05-14T21:00:50.676Z,55.67
2023-05-14T21:03:17.849Z,64.03
2023-05-14T21:05:45.083Z,62.10
2023-05-14T21:08:12.118Z,55.15
2023-05-14T21:10:39.278Z,56.00
2023-05-14T21:13:07.273Z,50.85
2023-05-14T21:15:34.464Z,55.80
2023-05-14T21:18:02.387Z,52.70
2023-05-14T21:20:29.560Z,47.95
2023-05-14T21:22:56.648Z,48.42
2023-05-14T21:25:24.015Z,52.58
2023-05-14T21:27:51.339Z,55.10
2023-05-14T21:30:18.570Z,44.80
2023-05-14T21:32:45.659Z,47.22
2023-05-14T21:35:12.683Z,60.13
2023-05-14T21:37:40.016Z,51.80
2023-05-14T21:40:12.444Z,43.78
2023-05-14T21:42:40.921Z,44.10
2023-05-14T21:45:08.361Z,41.08
2023-05-14T21:47:35.748Z,55.47
2023-05-14T21:50:02.853Z,73.50
2023-05-14T21:52:30.054Z,64.68
2023-05-14T21:54:57.109Z,63.13
2023-05-14T21:57:25.211Z,55.83
2023-05-14T21:59:53.750Z,50.10
2023-05-14T22:02:20.890Z,48.25
2023-05-14T22:04:48.022Z,56.63
2023-05-14T22:07:15.100Z,52.92
2023-05-14T22:09:42.113Z,58.15
2023-05-14T22:12:10.168Z,45.65
2023-05-14T22:14:37.220Z,49.42
2023-05-14T22:17:04.948Z,48.58
2023-05-14T22:19:32.100Z,58.38
2023-05-14T22:21:59.257Z,46.78
2023-05-14T22:24:26.295Z,50.65
2023-05-14T22:26:53.410Z,51.95
2023-05-14T22:29:20.585Z,47.58
2023-05-14T22:31:47.615Z,51.65
2023-05-14T22:34:14.857Z,63.58
2023-05-14T22:36:42.127Z,51.47
2023-05-14T22:39:11.193Z,44.05
2023-05-14T22:41:39.261Z,56.38
2023-05-14T22:44:06.328Z,53.35
2023-05-14T22:46:33.539Z,52.63
2023-05-14T22:49:00.546Z,71.90
2023-05-14T22:51:27.628Z,73.70
2023-05-14T22:53:54.724Z,63.47
2023-05-14T22:56:21.957Z,60.67
2023-05-14T22:58:49.136Z,58.40
2023-05-14T23:01:16.172Z,72.32
2023-05-14T23:03:43.196Z,77.57
2023-05-14T23:06:13.818Z,60.97
2023-05-14T23:08:41.029Z,60.50
2023-05-14T23:11:08.114Z,65.57
2023-05-14T23:13:35.386Z,63.83
2023-05-14T23:16:02.516Z,59.70
2023-05-14T23:18:30.897Z,56.47
2023-05-14T23:20:58.381Z,51.47
2023-05-14T23:23:25.657Z,49.92
2023-05-14T23:25:53.407Z,37.08
2023-05-14T23:28:20.371Z,51.88
2023-05-14T23:30:47.451Z,60.00
2023-05-14T23:33:14.670Z,54.25
2023-05-14T23:35:41.906Z,46.67
2023-05-14T23:38:09.281Z,49.47
2023-05-14T23:40:36.463Z,58.03
2023-05-14T23:43:03.486Z,59.85
2023-05-14T23:45:31.162Z,63.25
2023-05-14T23:47:59.173Z,92.07
2023-05-14T23:50:26.487Z,123.97
2023-05-14T23:52:54.918Z,109.95
2023-05-14T23:55:22.418Z,90.68
2023-05-14T23:57:49.785Z,110.93
